Comunidad Buenos Aires, Puerto Rico
Current Conditions -  °F | °C
As of 9:50 AM on Saturday 20 Dec 2014 (Local Time) from TJBQ Reporting Station
Clear Clear  
Wind Chill: 81°   Ceiling: Unl
Heat Index: 83°   Visibility: 10mi
Dew Point: 68°   Wind: 15mph
Humidity: 65%   Direction: 100°E
Pressure: 30.07"   Gusts: 22mph
Location:  18.4739°N, 66.7295°W
Report Text: TJBQ 201350Z 10013G19KT 10SM SKC 27/20 A3007 RMK RWY08 ATIS J
Loading
Personal Weather Stations






























Interactive Weather Map New forecast layout! Learn more

10-Day Weather Forecast

Advertisements
Track Severe Weather on mobile